createdAt,value
2019-05-23T00:00:20.606Z,11
2019-05-23T00:05:20.526Z,11.3
2019-05-23T00:10:20.459Z,11.1
2019-05-23T00:15:20.281Z,11.5
2019-05-23T00:20:19.747Z,11.5
2019-05-23T00:25:19.547Z,11.5
2019-05-23T00:30:19.331Z,11.8
2019-05-23T00:35:19.201Z,11.8
2019-05-23T00:40:19.023Z,11.6
2019-05-23T00:45:18.755Z,11.8
2019-05-23T00:50:18.191Z,11.4
2019-05-23T00:55:17.672Z,11.4
2019-05-23T01:00:17.403Z,11.1
2019-05-23T01:05:16.949Z,10.8
2019-05-23T01:10:16.441Z,10.8
2019-05-23T01:15:16.074Z,10.5
2019-05-23T01:20:15.618Z,10.2
2019-05-23T01:25:15.406Z,9.9
2019-05-23T01:30:14.741Z,9.8
2019-05-23T01:35:14.328Z,9.8
2019-05-23T01:40:13.999Z,9.9
2019-05-23T01:45:13.927Z,9.9
2019-05-23T01:50:13.736Z,9.8
2019-05-23T01:55:13.554Z,9.7
2019-05-23T02:00:13.381Z,9.6
2019-05-23T02:05:13.108Z,9.5
2019-05-23T02:10:12.704Z,9.7
2019-05-23T02:15:12.520Z,9.6
2019-05-23T02:20:12.105Z,9.4
2019-05-23T02:25:11.975Z,9.6
2019-05-23T02:30:32.072Z,9.5
2019-05-23T02:35:32.250Z,9.6
2019-05-23T02:40:32.044Z,9.5
2019-05-23T02:45:31.610Z,9.4
2019-05-23T02:50:31.383Z,9.4
2019-05-23T02:55:31.097Z,9.2
2019-05-23T03:00:30.685Z,9.1
2019-05-23T03:05:30.497Z,9.2
2019-05-23T03:10:29.909Z,9.2
2019-05-23T03:15:29.773Z,9.5
2019-05-23T03:20:29.769Z,9.7
2019-05-23T03:25:31.844Z,13.9
2019-05-23T03:30:34.140Z,17
2019-05-23T03:35:34.341Z,16.9
2019-05-23T03:40:35.719Z,18.7
2019-05-23T03:45:39.049Z,17.3
2019-05-23T03:50:38.095Z,16.9
2019-05-23T03:55:38.035Z,17.5
2019-05-23T04:00:37.655Z,16.8
2019-05-23T04:05:37.196Z,16.6
2019-05-23T04:10:36.039Z,16
2019-05-23T04:15:34.869Z,14.4
2019-05-23T04:20:34.663Z,15
2019-05-23T04:25:34.649Z,14.9
2019-05-23T04:30:33.943Z,14
2019-05-23T04:35:33.847Z,14.9
2019-05-23T04:40:32.590Z,13.7
2019-05-23T04:45:32.171Z,14
2019-05-23T04:50:32.228Z,14.4
2019-05-23T04:55:32.437Z,14.6
2019-05-23T05:00:31.956Z,14.9
2019-05-23T05:05:31.807Z,14.9
2019-05-23T05:10:31.443Z,14.8
2019-05-23T05:15:31.060Z,14.2
2019-05-23T05:20:30.565Z,13.8
2019-05-23T05:25:30.217Z,13.9
2019-05-23T05:30:29.768Z,13.6
2019-05-23T05:35:29.488Z,14
2019-05-23T05:40:29.684Z,14.4
2019-05-23T05:45:30.114Z,15
2019-05-23T05:50:30.646Z,16.1
2019-05-23T05:55:30.788Z,16.7
2019-05-23T06:00:32.086Z,18.7
2019-05-23T06:05:32.205Z,18.9
2019-05-23T06:10:31.827Z,18.5
2019-05-23T06:15:31.107Z,17.9
2019-05-23T06:20:30.757Z,18.6
2019-05-23T06:25:31.744Z,20.5
2019-05-23T06:30:32.792Z,20.4
2019-05-23T06:35:32.866Z,20.6
2019-05-23T06:40:31.286Z,20.3
2019-05-23T06:45:30.410Z,19.7
2019-05-23T06:50:30.869Z,20.9
2019-05-23T06:55:30.062Z,20.5
2019-05-23T07:00:29.735Z,20.5
2019-05-23T07:05:29.163Z,20.8
2019-05-23T07:10:29.350Z,21.3
2019-05-23T07:15:28.693Z,20.7
2019-05-23T07:20:29.002Z,21.1
2019-05-23T07:25:27.535Z,19.4
2019-05-23T07:30:27.729Z,21.1
2019-05-23T07:35:28.664Z,21.6
2019-05-23T07:40:29.496Z,22.1
2019-05-23T07:45:29.016Z,22.1
2019-05-23T07:50:28.048Z,21
2019-05-23T07:55:28.350Z,22
2019-05-23T08:00:28.039Z,21.5
2019-05-23T08:05:26.895Z,21.2
2019-05-23T08:10:33.411Z,22.2
2019-05-23T08:15:32.386Z,21.5
2019-05-23T08:20:32.275Z,21.5
2019-05-23T08:25:31.546Z,21.3
2019-05-23T08:30:30.351Z,19.8
2019-05-23T08:35:29.371Z,19.5
2019-05-23T08:40:29.130Z,19.6
2019-05-23T08:45:29.940Z,21.1
2019-05-23T08:50:30.134Z,22
2019-05-23T08:55:30.340Z,22.5
2019-05-23T09:00:29.909Z,21.9
2019-05-23T09:05:28.854Z,21.5
2019-05-23T09:10:28.162Z,20.7
2019-05-23T09:15:27.875Z,21.4
2019-05-23T09:20:27.927Z,20.9
2019-05-23T09:25:27.437Z,21.2
2019-05-23T09:30:27.017Z,21.8
2019-05-23T09:35:28.174Z,22.7
2019-05-23T09:40:27.637Z,22.1
2019-05-23T09:45:27.060Z,21.8
2019-05-23T09:50:26.994Z,21.5
2019-05-23T09:55:26.527Z,20.8
2019-05-23T10:00:25.446Z,21.1
2019-05-23T10:05:41.318Z,22.2
2019-05-23T10:10:41.189Z,21.9
2019-05-23T10:15:41.614Z,23.3
2019-05-23T10:20:41.802Z,23.9
2019-05-23T10:25:42.210Z,25
2019-05-23T10:30:41.835Z,24.2
2019-05-23T10:35:56.840Z,25
2019-05-23T10:40:57.758Z,23.3
2019-05-23T10:45:55.903Z,22.6
2019-05-23T10:50:56.256Z,23.4
2019-05-23T10:55:55.594Z,22.4
2019-05-23T11:00:55.466Z,23.4
2019-05-23T11:05:55.742Z,24.5
2019-05-23T11:10:54.275Z,22.6
2019-05-23T11:15:53.547Z,22.5
2019-05-23T11:20:53.117Z,22.4
2019-05-23T11:25:52.892Z,22.4
2019-05-23T11:30:51.760Z,21.4
2019-05-23T11:35:51.496Z,21.5
2019-05-23T11:40:51.440Z,22
2019-05-23T11:45:51.366Z,22.1
2019-05-23T11:50:51.114Z,22
2019-05-23T11:55:54.154Z,22.3
2019-05-23T12:00:54.648Z,22.3
2019-05-23T12:05:54.022Z,21.4
2019-05-23T12:10:53.395Z,21.5
2019-05-23T12:15:53.007Z,21.5
2019-05-23T12:20:52.523Z,21.7
2019-05-23T12:25:52.478Z,22.1
2019-05-23T12:30:53.041Z,22.8
2019-05-23T12:35:52.704Z,22.3
2019-05-23T12:40:51.912Z,22.1
2019-05-23T12:45:51.888Z,22.7
2019-05-23T12:50:53.884Z,21.4
2019-05-23T12:55:52.877Z,21.2
2019-05-23T13:00:53.028Z,22.3
2019-05-23T13:05:53.016Z,22.5
2019-05-23T13:10:52.663Z,22.1
2019-05-23T13:15:52.354Z,22.6
2019-05-23T13:20:52.143Z,22.7
2019-05-23T13:25:51.570Z,22.2
2019-05-23T13:30:51.201Z,22.3
2019-05-23T13:35:50.631Z,21.2
2019-05-23T13:40:49.619Z,20.8
2019-05-23T13:45:48.984Z,20.5
2019-05-23T13:50:48.334Z,20.3
2019-05-23T13:55:47.850Z,20.2
2019-05-23T14:00:47.197Z,20.1
2019-05-23T14:05:46.908Z,20.1
2019-05-23T14:10:46.610Z,20.5
2019-05-23T14:15:46.349Z,20.5
2019-05-23T14:20:46.156Z,21.3
2019-05-23T14:25:46.413Z,21.4
2019-05-23T14:30:46.074Z,21
2019-05-23T14:35:46.061Z,21.2
2019-05-23T14:40:45.117Z,20.7
2019-05-23T14:45:44.180Z,20.3
2019-05-23T14:50:44.488Z,20.8
2019-05-23T14:55:44.042Z,20.7
2019-05-23T15:00:43.636Z,20.6
2019-05-23T15:05:43.604Z,20.7
2019-05-23T15:10:42.876Z,20.6
2019-05-23T15:15:42.818Z,20.6
2019-05-23T15:20:42.778Z,20.7
2019-05-23T15:25:42.221Z,20.7
2019-05-23T15:30:42.110Z,20.8
2019-05-23T15:35:41.833Z,20.8
2019-05-23T15:40:41.588Z,20.5
2019-05-23T15:45:40.461Z,19.6
2019-05-23T15:50:40.054Z,19.5
2019-05-23T15:55:39.710Z,19
2019-05-23T16:00:39.419Z,19.3
2019-05-23T16:05:38.448Z,19.4
2019-05-23T16:10:38.095Z,19.3
2019-05-23T16:15:38.003Z,19.1
2019-05-23T16:20:37.549Z,19
2019-05-23T16:25:37.151Z,18.8
2019-05-23T16:30:36.582Z,18.8
2019-05-23T16:35:36.214Z,18.8
2019-05-23T16:40:35.609Z,18.5
2019-05-23T16:45:35.414Z,18
2019-05-23T16:50:34.929Z,18.1
2019-05-23T16:55:34.546Z,18
2019-05-23T17:00:34.230Z,17.7
2019-05-23T17:05:34.137Z,17.5
2019-05-23T17:10:35.376Z,17.2
2019-05-23T17:15:35.679Z,17.1
2019-05-23T17:20:35.502Z,16.9
2019-05-23T17:25:35.234Z,16.4
2019-05-23T17:30:34.960Z,16.6
2019-05-23T17:35:34.372Z,16.5
2019-05-23T17:40:33.927Z,15.9
2019-05-23T17:45:33.367Z,15.8
2019-05-23T17:50:34.804Z,15.6
2019-05-23T17:55:34.251Z,15.4
2019-05-23T18:00:33.931Z,15.2
2019-05-23T18:05:33.456Z,14.9
2019-05-23T18:10:43.617Z,14.8
2019-05-23T18:15:43.587Z,14.6
2019-05-23T18:20:43.184Z,14.3
2019-05-23T18:25:42.714Z,14.1
2019-05-23T18:30:42.377Z,14.1
2019-05-23T18:35:42.055Z,14.2
2019-05-23T18:40:41.467Z,14.2
2019-05-23T18:45:41.082Z,14
2019-05-23T18:50:40.682Z,13.6
2019-05-23T18:55:40.263Z,13.7
2019-05-23T19:00:39.815Z,13.7
2019-05-23T19:05:39.612Z,13.7
2019-05-23T19:10:39.366Z,13.7
2019-05-23T19:15:39.062Z,13.6
2019-05-23T19:20:38.781Z,13.6
2019-05-23T19:25:38.692Z,13.6
2019-05-23T19:30:38.418Z,13.3
2019-05-23T19:35:38.035Z,13.4
2019-05-23T19:40:37.812Z,13.1
2019-05-23T19:45:37.481Z,13.2
2019-05-23T19:50:37.134Z,13.2
2019-05-23T19:55:39.906Z,13.1
2019-05-23T20:00:39.405Z,13
2019-05-23T20:05:38.994Z,12.8
2019-05-23T20:10:38.669Z,12.5
2019-05-23T20:15:38.360Z,12.6
2019-05-23T20:20:37.873Z,12.4
2019-05-23T20:25:37.585Z,12.1
2019-05-23T20:30:36.901Z,12.1
2019-05-23T20:35:36.621Z,11.8
2019-05-23T20:40:36.489Z,12
2019-05-23T20:45:36.252Z,11.7
2019-05-23T20:50:35.926Z,12
2019-05-23T20:55:35.531Z,11.7
2019-05-23T21:00:34.947Z,11.9
2019-05-23T21:05:34.724Z,11.9
2019-05-23T21:10:34.656Z,11.9
2019-05-23T21:15:34.167Z,11.6
2019-05-23T21:20:33.923Z,11.8
2019-05-23T21:25:33.686Z,11.9
2019-05-23T21:30:33.364Z,11.7
2019-05-23T21:35:33.429Z,11.9
2019-05-23T21:40:33.046Z,11.8
2019-05-23T21:45:32.470Z,11.5
2019-05-23T21:50:31.998Z,11.8
2019-05-23T21:55:31.750Z,11.4
2019-05-23T22:00:31.380Z,11.6
2019-05-23T22:05:30.914Z,11.5
2019-05-23T22:10:30.615Z,11.4
2019-05-23T22:15:29.991Z,11.3
2019-05-23T22:20:29.770Z,11.3
2019-05-23T22:25:29.001Z,11
2019-05-23T22:30:28.676Z,11.1
2019-05-23T22:35:28.452Z,10.8
2019-05-23T22:40:28.039Z,10.7
2019-05-23T22:45:27.809Z,10.7
2019-05-23T22:50:27.464Z,10.7
2019-05-23T22:55:26.968Z,10.6
2019-05-23T23:00:26.696Z,10.5
2019-05-23T23:05:26.161Z,10.4
2019-05-23T23:10:25.677Z,10.3
2019-05-23T23:15:25.233Z,10.2
2019-05-23T23:20:24.662Z,10.1
2019-05-23T23:25:24.420Z,9.8
2019-05-23T23:30:24.037Z,9.8
2019-05-23T23:35:23.341Z,9.9
2019-05-23T23:40:22.906Z,9.8
2019-05-23T23:45:22.672Z,9.7
2019-05-23T23:50:22.276Z,9.7
2019-05-23T23:55:21.821Z,9.5
